Flight Track Log - Related Links

Times and Time Zones

All times are in EDT time to prevent confusion due to time zone crossing. See the AAL1326 flight status page for this flight to view local times or setup timezone preferences in your user account.

Time Position Orientation Groundspeed Altitude Reporting Facility
EDT Latitude Longitude Course Direction KTS MPH feet Rate Location/Type
Fri 07:50:38 PM 41.9000 -87.9167 180° South 215 247 3,200  Level Chicago TRACON
Fri 07:52:00 PM 41.6609 -87.7131 180° South  Level Estimated
Fri 07:52:04 PM 41.8044 -87.8875 167° South 259 298 6,800  Level Chicago Center
Fri 07:53:00 PM 41.5539 -87.6490 176° South  Level Estimated
Fri 07:53:05 PM 41.7250 -87.8875 180° South 283 326 9,700  Level Chicago Center
Fri 07:54:00 PM 41.4469 -87.5851 180° South  Level Estimated
Fri 07:54:07 PM 41.6431 -87.8844 178° South 295 339 12,800  Level Chicago Center
Fri 07:55:00 PM 41.3399 -87.5214 180° South  Level Estimated
Fri 07:55:09 PM 41.5583 -87.8825 179° South 302 348 15,800  Level Chicago Center
Fri 07:56:00 PM 41.2350 -87.4593 180° South  Level Estimated
Fri 07:56:11 PM 41.4719 -87.8800 179° South 307 353 18,800  Level Chicago Center
Fri 07:57:12 PM 41.3819 -87.8811 181° South 316 364 20,500 1,854 Climbing Chicago Center
Fri 07:58:14 PM 41.2814 -87.8903 184° South 349 402 22,600 2,371 Climbing Chicago Center
Fri 07:59:16 PM 41.1597 -87.8908 180° South 360 414 25,400 2,177 Climbing Chicago Center
Fri 08:00:18 PM 41.0567 -87.8861 178° South 366 421 27,100 1,452 Climbing Chicago Center
Fri 08:01:20 PM 40.9514 -87.8836 179° South 374 430 28,400 1,268 Climbing Chicago Center
Fri 08:02:21 PM 40.8419 -87.8792 178° South 388 447 29,700 1,268 Climbing Chicago Center
Fri 08:03:23 PM 40.7314 -87.8767 179° South 396 456 31,000 1,016 Climbing Chicago Center
Fri 08:04:25 PM 40.6183 -87.8725 178° South 404 465 31,800 823 Climbing Chicago Center
Fri 08:05:27 PM 40.5006 -87.8686 179° South 420 483 32,700 1,024 Climbing Chicago Center
Fri 08:06:28 PM 40.3581 -87.8642 179° South 426 490 33,900 1,018 Climbing Chicago Center
Fri 08:07:19 PM 40.2525 -87.8597 178° South 428 493 34,600 956 Climbing Indianapolis Center
Fri 08:08:21 PM 40.1331 -87.8547 178° South 429 494 35,700 1,065 Climbing Indianapolis Center
Fri 08:09:23 PM 40.0139 -87.8508 179° South 428 493 36,800 634 Climbing Indianapolis Center
Fri 08:10:24 PM 39.8978 -87.8464 178° South 422 486 37,000 98 Climbing Indianapolis Center
Fri 08:11:26 PM 39.7828 -87.8403 178° South 417 480 37,000  Level Indianapolis Center
Fri 08:12:28 PM 39.6669 -87.8331 177° South 416 479 37,000  Level Indianapolis Center
Fri 08:13:29 PM 39.5497 -87.8308 179° South 417 480 37,000  Level Indianapolis Center
Fri 08:14:31 PM 39.4333 -87.8144 174° South 422 486 37,000  Level Indianapolis Center
Fri 08:15:32 PM 39.3211 -87.7400 153° Southeast 446 513 37,000  Level Indianapolis Center
Fri 08:16:34 PM 39.1878 -87.6547 154° Southeast 443 510 37,000  Level Indianapolis Center
Fri 08:17:36 PM 39.0756 -87.5839 154° Southeast 446 513 37,000  Level Indianapolis Center
Fri 08:18:37 PM 38.9636 -87.5153 155° Southeast 445 512 37,000  Level Indianapolis Center
Fri 08:19:39 PM 38.8519 -87.4447 154° Southeast 445 512 37,000  Level Indianapolis Center
Fri 08:20:41 PM 38.7394 -87.3750 154° Southeast 446 513 37,000  Level Indianapolis Center
Fri 08:21:42 PM 38.6278 -87.3056 154° Southeast 444 511 37,000  Level Indianapolis Center
Fri 08:22:44 PM 38.5161 -87.2367 154° Southeast 443 510 37,000  Level Indianapolis Center
Fri 08:23:45 PM 38.4078 -87.1706 154° Southeast 435 501 37,000  Level Indianapolis Center
Fri 08:24:47 PM 38.2961 -87.1031 155° Southeast 434 499 37,000  Level Indianapolis Center
Fri 08:25:49 PM 38.1672 -87.0289 156° South 432 497 37,000  Level Indianapolis Center
Fri 08:26:50 PM 38.0656 -86.9617 152° Southeast 438 504 37,000  Level Indianapolis Center
Fri 08:27:52 PM 37.9533 -86.8944 155° Southeast 443 510 37,000  Level Indianapolis Center
Fri 08:28:53 PM 37.8431 -86.8269 154° Southeast 440 506 37,000  Level Indianapolis Center
Fri 08:29:55 PM 37.7317 -86.7606 155° Southeast 440 506 37,000  Level Indianapolis Center
Fri 08:30:57 PM 37.6203 -86.6931 154° Southeast 441 507 37,000  Level Indianapolis Center
Fri 08:31:58 PM 37.4958 -86.6208 155° Southeast 441 507 37,000  Level Indianapolis Center
Fri 08:33:00 PM 37.3839 -86.5525 154° Southeast 441 507 37,000  Level Indianapolis Center
Fri 08:34:01 PM 37.2728 -86.4856 154° Southeast 438 504 37,000  Level Indianapolis Center
Fri 08:35:03 PM 37.1642 -86.4228 155° Southeast 426 490 37,000  Level Indianapolis Center
Fri 08:36:04 PM 37.0572 -86.3586 154° Southeast 421 484 37,000  Level Indianapolis Center
Fri 08:37:06 PM 36.9494 -86.2967 155° Southeast 420 483 37,000  Level Indianapolis Center
Fri 08:38:05 PM 36.8403 -86.2325 155° Southeast 425 489 37,000  Level Memphis Center
Fri 08:39:05 PM 36.7361 -86.1706 155° Southeast 420 483 37,000  Level Memphis Center
Fri 08:40:05 PM 36.6319 -86.1086 154° Southeast 420 483 37,000  Level Memphis Center
Fri 08:41:05 PM 36.5169 -86.0425 155° Southeast 420 483 37,000  Level Memphis Center
Fri 08:42:05 PM 36.4128 -85.9836 156° South 415 478 37,000  Level Memphis Center
Fri 08:43:05 PM 36.3106 -85.9219 154° Southeast 410 472 37,000  Level Memphis Center
Fri 08:44:05 PM 36.2042 -85.8611 155° Southeast 410 472 37,000  Level Memphis Center
Fri 08:45:05 PM 36.0978 -85.8028 156° South 410 472 37,000  Level Memphis Center
Fri 08:46:06 PM 35.9936 -85.7442 156° South 410 472 37,000  Level Memphis Center
Fri 08:48:05 PM 35.7894 -85.6311 156° South 428 493 37,000  Level Atlanta Center
Fri 08:49:05 PM 35.6900 -85.5703 154° Southeast 421 484 37,000  Level Atlanta Center
Fri 08:50:05 PM 35.5883 -85.5147 156° South 410 472 37,000  Level Atlanta Center
Fri 08:51:05 PM 35.4847 -85.4569 156° South 405 466 37,000  Level Atlanta Center
Fri 08:52:05 PM 35.3853 -85.4017 156° South 400 460 37,000  Level Atlanta Center
Fri 08:53:05 PM 35.2836 -85.3439 155° Southeast 400 460 37,000  Level Atlanta Center
Fri 08:54:05 PM 35.1819 -85.2889 156° South 400 460 37,000  Level Atlanta Center
Fri 08:55:05 PM 35.0803 -85.2292 154° Southeast 400 460 37,000  Level Atlanta Center
Fri 08:56:05 PM 34.9994 -85.1850 156° South 400 460 37,000  Level Atlanta Center
Fri 08:57:05 PM 34.8747 -85.1172 156° South 400 460 37,000  Level Atlanta Center
Fri 08:58:05 PM 34.7772 -85.0656 156° South 400 460 37,000  Level Atlanta Center
Fri 08:59:05 PM 34.6775 -85.0086 155° Southeast 400 460 37,000  Level Atlanta Center
Fri 09:00:05 PM 34.5819 -84.9522 154° Southeast 389 448 37,000  Level Atlanta Center
Fri 09:01:05 PM 34.4925 -84.9058 157° South 389 448 37,000  Level Atlanta Center
Fri 09:02:05 PM 34.3928 -84.8494 155° Southeast 389 448 37,000  Level Atlanta Center
Fri 09:03:05 PM 34.2928 -84.7956 156° South 395 455 37,000  Level Atlanta Center
Fri 09:04:05 PM 34.1950 -84.7419 156° South 395 455 37,000  Level Atlanta Center
Fri 09:05:05 PM 34.0806 -84.6808 156° South 401 461 37,000  Level Atlanta Center
Fri 09:06:05 PM 33.9786 -84.6275 157° South 401 461 37,000  Level Atlanta Center
Fri 09:07:05 PM 33.8767 -84.5767 158° South 401 461 37,000  Level Atlanta Center
Fri 09:08:05 PM 33.7767 -84.5186 154° Southeast 396 456 37,000  Level Atlanta Center
Fri 09:09:05 PM 33.6744 -84.4631 156° South 396 456 37,000  Level Atlanta Center
Fri 09:10:05 PM 33.5808 -84.4178 158° South 401 461 37,000  Level Atlanta Center
Fri 09:11:05 PM 33.4767 -84.3725 160° South 401 461 37,000  Level Atlanta Center
Fri 09:12:05 PM 33.3722 -84.3297 161° South 401 461 37,000  Level Atlanta Center
Fri 09:13:05 PM 33.2639 -84.2872 162° South 401 461 37,000  Level Atlanta Center
Fri 09:14:05 PM 33.1594 -84.2397 159° South 406 467 37,000  Level Atlanta Center
Fri 09:15:05 PM 33.0553 -84.1950 160° South 398 458 37,000  Level Atlanta Center
Fri 09:16:05 PM 32.9489 -84.1528 162° South 398 458 37,000  Level Atlanta Center
Fri 09:17:05 PM 32.8403 -84.1106 162° South 404 465 37,000  Level Atlanta Center
Fri 09:18:05 PM 32.7297 -84.0636 160° South 409 471 37,000  Level Atlanta Center
Fri 09:19:05 PM 32.6192 -84.0192 161° South 414 476 37,000 300 Level Atlanta Center
Fri 09:20:05 PM 32.5083 -83.9722 160° South 420 483 37,600 650 Climbing Atlanta Center
Fri 09:21:05 PM 32.3936 -83.9258 161° South 425 489 38,300 650 Climbing Atlanta Center
Fri 09:22:05 PM 32.2808 -83.8817 162° South 425 489 38,900 350 Climbing Atlanta Center
Fri 09:23:05 PM 32.1703 -83.8353 160° South 425 489 39,000 61 Climbing Atlanta Center
Fri 09:23:44 PM 32.0861 -83.8000 160° South 424 488 39,000  Level Jacksonville Center
Fri 09:24:44 PM 31.9797 -83.7572 161° South 442 509 39,000 -50 Level Jacksonville Center
Fri 09:25:44 PM 31.8528 -83.7047 161° South 442 509 38,900 -50 Descending Jacksonville Center
Fri 09:26:44 PM 31.7383 -83.6522 159° South 450 518 38,900 50 Level Jacksonville Center
Fri 09:27:44 PM 31.6258 -83.6147 164° South 449 517 39,000 50 Climbing Jacksonville Center
Fri 09:28:44 PM 31.4944 -83.5625 161° South 460 529 39,000  Level Jacksonville Center
Fri 09:29:44 PM 31.3758 -83.5156 161° South 455 524 39,000  Level Jacksonville Center
Fri 09:30:44 PM 31.2592 -83.4686 161° South 455 524 39,000  Level Jacksonville Center
Fri 09:31:44 PM 31.1381 -83.4217 162° South 455 524 39,000  Level Jacksonville Center
Fri 09:32:44 PM 31.0214 -83.3750 161° South 455 524 39,000  Level Jacksonville Center
Fri 09:33:44 PM 30.9025 -83.3283 161° South 449 517 39,000  Level Jacksonville Center
Fri 09:34:44 PM 30.7900 -83.2794 160° South 442 509 39,000 -50 Level Jacksonville Center
Fri 09:35:44 PM 30.6733 -83.2233 158° South 442 509 38,900  Descending Jacksonville Center
Fri 09:36:44 PM 30.5564 -83.1653 157° South 449 517 39,000 50 Climbing Jacksonville Center
Fri 09:37:44 PM 30.4375 -83.1069 157° South 455 524 39,000 -50 Level Jacksonville Center
Fri 09:38:44 PM 30.3228 -83.0489 156° South 455 524 38,900  Descending Jacksonville Center
Fri 09:39:44 PM 30.2017 -82.9886 157° South 455 524 39,000 50 Climbing Jacksonville Center
Fri 09:40:44 PM 30.0806 -82.9286 157° South 460 529 39,000  Level Jacksonville Center
Fri 09:41:44 PM 29.9681 -82.8781 159° South 472 543 39,000  Level Jacksonville Center
Fri 09:42:44 PM 29.8489 -82.8158 156° South 472 543 39,000  Level Jacksonville Center
Fri 09:43:44 PM 29.7278 -82.7586 158° South 472 543 39,000  Level Jacksonville Center
Fri 09:44:44 PM 29.6003 -82.6967 157° South 477 549 39,000 -50 Level Jacksonville Center
Fri 09:45:44 PM 29.4792 -82.6325 155° Southeast 477 549 38,900  Descending Jacksonville Center
Fri 09:46:44 PM 29.3581 -82.5733 157° South 477 549 39,000 50 Climbing Jacksonville Center
Fri 09:47:44 PM 29.2347 -82.5142 157° South 477 549 39,000  Level Jacksonville Center
Fri 09:48:44 PM 29.1133 -82.4553 157° South 477 549 39,000  Level Jacksonville Center
Fri 09:49:44 PM 28.9881 -82.4511 178° South 457 526 39,000  Level Jacksonville Center
Fri 09:50:44 PM 28.8650 -82.4586 183° South 441 507 39,000  Level Jacksonville Center
Fri 09:51:44 PM 28.7397 -82.4686 184° South 449 517 39,000  Level Jacksonville Center
Fri 09:52:44 PM 28.6208 -82.4764 183° South 449 517 39,000  Level Jacksonville Center
Fri 09:54:27 PM 28.3947 -82.4889 183° South 445 512 39,000  Level Miami Center
Fri 09:55:27 PM 28.2881 -82.4953 183° South 445 512 39,000 -50 Level Miami Center
Fri 09:56:27 PM 28.1647 -82.4986 181° South 445 512 38,900  Descending Miami Center
Fri 09:57:28 PM 28.0456 -82.5092 184° South 439 505 39,000 50 Climbing Miami Center
Fri 09:58:27 PM 27.9289 -82.5011 177° South 439 505 39,000  Level Miami Center
Fri 09:59:27 PM 27.7911 -82.4519 162° South 444 511 39,000  Level Miami Center
Fri 10:00:27 PM 27.6719 -82.4086 162° South 452 520 39,000  Level Miami Center
Fri 10:01:27 PM 27.5586 -82.3656 161° South 457 526 39,000  Level Miami Center
Fri 10:02:27 PM 27.4372 -82.3200 162° South 457 526 39,000 -450 Level Miami Center
Fri 10:03:27 PM 27.3014 -82.2717 162° South 457 526 38,100 -1,700 Descending Miami Center
Fri 10:04:27 PM 27.1822 -82.2217 160° South 457 526 35,600 -3,049 Descending Miami Center
Fri 10:05:29 PM 27.0753 -82.1258 141° Southeast 482 555 31,900 -3,220 Descending Miami Center
Fri 10:06:30 PM 26.9825 -82.0308 138° Southeast 503 579 29,000 -2,529 Descending Miami Center
Fri 10:07:30 PM 26.8778 -81.9283 139° Southeast 508 585 26,800 -2,136 Descending Miami Center
Fri 10:08:28 PM 26.7875 -81.8197 133° Southeast 494 568 24,800 -1,950 Descending Miami Center
Fri 10:09:30 PM 26.7033 -81.7186 133° Southeast 464 534 22,900 -1,983 Descending Miami Center
Fri 10:10:29 PM 26.6272 -81.6156 130° Southeast 431 496 20,800 -2,067 Descending Miami Center
Fri 10:11:29 PM 26.5511 -81.5219 132° Southeast 414 476 18,800 -1,983 Descending Miami Center
Fri 10:12:30 PM 26.4808 -81.4311 131° Southeast 403 464 16,800 -2,017 Descending Miami Center
Fri 10:13:28 PM 26.4083 -81.3469 134° Southeast 390 449 14,800 -1,932 Descending Miami Center
Fri 10:14:28 PM 26.3419 -81.2633 132° Southeast 371 427 13,000 -1,736 Descending Miami Center
Fri 10:15:29 PM 26.2794 -81.1847 132° Southeast 355 409 11,300 -1,388 Descending Miami Center
Fri 10:16:29 PM 26.2211 -81.1108 131° Southeast 335 386 10,200 -963 Descending Miami Center
Fri 10:16:50 PM 26.1886 -81.0819 141° Southeast 292 336 10,000 -787 Descending Miami Center
Fri 10:17:30 PM 26.1667 -81.0442 123° Southeast 309 356 9,400 -1,065 Descending Miami Center
Fri 10:17:52 PM 26.1383 -81.0153 138° Southeast 274 315 8,900 -1,448 Descending Miami Center
Fri 10:18:28 PM 26.1161 -80.9822 127° Southeast 284 327 8,000 -1,111 Descending Miami Center
Fri 10:18:46 PM 26.1003 -80.9517 120° Southeast 271 312 7,900 -600 Descending Miami Center
Fri 10:19:28 PM 26.1017 -80.9053 88° East 256 295 7,400 -818 Descending Miami Center
Fri 10:19:52 PM 26.0986 -80.8683 95° East 246 283 7,000 -968 Descending Miami Center
Fri 10:20:30 PM 26.0975 -80.8289 92° East 244 281 6,400 -1,048 Descending Miami Center
Fri 10:20:55 PM 26.0944 -80.7917 95° East 237 273 5,900 -1,000 Descending Miami Center
Fri 10:21:30 PM 26.0953 -80.7594 88° East 239 275 5,400 -900 Descending Miami Center
Fri 10:21:55 PM 26.0900 -80.7200 98° East 231 266 5,000 -400 Descending Miami Center
Fri 10:22:30 PM 26.0928 -80.6878 85° East 234 269 5,000  Level Miami Center
Fri 10:23:01 PM 26.0856 -80.6436 100° East 225 259 5,000 -103 Level Miami Center
Fri 10:23:28 PM 26.0883 -80.6181 83° East 234 269 4,900  Descending Miami Center
Fri 10:24:01 PM 26.0833 -80.5739 97° East 223 257 5,000  Climbing Miami Center
Fri 10:24:28 PM 26.0861 -80.5486 83° East 234 269 4,900  Descending Miami Center
Fri 10:25:05 PM 26.0808 -80.5069 98° East 221 254 5,000 -98 Climbing Miami Center
Fri 10:25:29 PM 26.0836 -80.4769 84° East 229 264 4,800 -500 Descending Miami Center
Fri 10:26:05 PM 26.0761 -80.4372 102° East 217 250 4,500 -866 Descending Miami Center
Fri 10:27:06 PM 26.0758 -80.3703 90° East 212 244 3,400 -1,031 Descending Miami Center
Fri 10:28:13 PM 26.0772 -80.3056 89° East 172 198 2,300 -942 Descending Miami Center
Fri 10:29:07 PM 26.0742 -80.2569 94° East 164 189 1,500 -828 Descending Miami Center
Fri 10:30:09 PM 26.0753 -80.2106 88° East 148 170 700 -774 Descending Miami Center

Login

Don't have an account? Register now (free) for customized features, flight alerts, and more!